Seaman, Ohio
Current Conditions -  °F | °C
As of 9:35 AM on Friday 28 Nov 2014 (Local Time) from KFGX Reporting Station
Overcast Overcast  
Wind Chill: 21°   Ceiling: 9000
Heat Index: 28°   Visibility: 10mi
Dew Point: 21°   Wind: 7mph
Humidity: 76%   Direction: 230°SW
Pressure: 30.41"   Gusts: NA
Location:  38.94°N, 83.57°W
Report Text: KFGX 281435Z AUTO 23006KT 10SM OVC090 M02/M06 A3041 RMK AO2 T10221060
Loading
Personal Weather Stations






























Interactive Weather Map New forecast layout! Learn more

10-Day Weather Forecast

Advertisements
Track Severe Weather on mobile